createdAt,value
2023-03-23T16:02:53.947Z,18.70
2023-03-23T16:07:56.135Z,18.70
2023-03-23T16:12:58.176Z,18.70
2023-03-23T16:18:00.507Z,18.70
2023-03-23T16:23:02.522Z,18.70
2023-03-23T16:28:04.585Z,18.70
2023-03-23T16:33:06.870Z,18.60
2023-03-23T16:38:12.570Z,18.50
2023-03-23T16:43:14.754Z,18.50
2023-03-23T16:48:17.162Z,18.50
2023-03-23T16:53:19.218Z,18.40
2023-03-23T16:58:21.281Z,18.40
2023-03-23T17:03:23.284Z,18.10
2023-03-23T17:08:25.402Z,18.40
2023-03-23T17:13:27.990Z,18.40
2023-03-23T17:18:30.026Z,18.40
2023-03-23T17:23:32.110Z,18.40
2023-03-23T17:28:34.097Z,18.40
2023-03-23T17:33:36.077Z,18.30
2023-03-23T17:38:38.204Z,18.30
2023-03-23T17:43:41.059Z,18.20
2023-03-23T17:48:43.047Z,18.20
2023-03-23T17:53:45.175Z,18.20
2023-03-23T17:58:47.180Z,18.20
2023-03-23T18:08:51.655Z,18.20
2023-03-23T18:13:53.707Z,18.10
2023-03-23T18:18:56.412Z,18.00
2023-03-23T18:23:59.531Z,18.00
2023-03-23T18:34:05.365Z,18.00
2023-03-23T18:39:10.649Z,18.00
2023-03-23T18:44:12.838Z,17.90
2023-03-23T18:49:14.787Z,17.50
2023-03-23T18:54:17.602Z,17.90
2023-03-23T18:59:19.623Z,17.70
2023-03-23T19:04:22.430Z,17.70
2023-03-23T19:09:24.527Z,17.70
2023-03-23T19:14:26.848Z,17.70
2023-03-23T19:19:29.031Z,17.60
2023-03-23T19:24:31.035Z,17.60
2023-03-23T19:29:33.020Z,17.50
2023-03-23T19:34:35.137Z,17.50
2023-03-23T19:39:37.368Z,17.40
2023-03-23T19:44:39.577Z,17.30
2023-03-23T19:49:42.004Z,17.30
2023-03-23T19:54:44.162Z,17.10
2023-03-23T19:59:46.673Z,17.10
2023-03-23T20:04:49.645Z,17.00
2023-03-23T20:09:52.062Z,16.90
2023-03-23T20:14:54.084Z,16.90
2023-03-23T20:19:56.659Z,16.80
2023-03-23T20:25:00.553Z,16.80
2023-03-23T20:30:04.374Z,16.80
2023-03-23T20:40:13.050Z,16.80
2023-03-23T20:45:16.010Z,16.70
2023-03-23T20:50:18.557Z,16.90
2023-03-23T20:55:20.662Z,16.70
2023-03-23T21:00:23.206Z,16.80
2023-03-23T21:05:25.707Z,16.80
2023-03-23T21:10:28.407Z,16.80
2023-03-23T21:15:31.132Z,16.80
2023-03-23T21:20:33.546Z,16.80
2023-03-23T21:30:45.986Z,16.80
2023-03-23T21:35:48.285Z,16.70
2023-03-23T21:40:50.560Z,16.70
2023-03-23T21:51:04.114Z,16.70
2023-03-23T21:56:07.017Z,16.70
2023-03-23T22:01:10.290Z,16.70
2023-03-23T22:06:14.829Z,16.70
2023-03-23T22:11:19.461Z,16.70
2023-03-23T22:16:22.620Z,16.70
2023-03-23T22:21:28.422Z,16.70
2023-03-23T22:26:31.212Z,16.60
2023-03-23T22:31:34.530Z,16.60
2023-03-23T22:41:40.434Z,16.60
2023-03-23T22:51:45.500Z,16.70
2023-03-23T22:56:47.720Z,16.60
2023-03-23T23:01:49.877Z,16.60
2023-03-23T23:07:00.237Z,16.60
2023-03-23T23:12:09.525Z,16.60
2023-03-23T23:22:19.217Z,16.70
2023-03-23T23:27:21.722Z,16.70
2023-03-23T23:32:24.780Z,16.70
2023-03-23T23:37:27.252Z,16.70
2023-03-23T23:47:31.839Z,16.70
